createdAt,value
2022-07-26T00:00:13.485Z,1.80
2022-07-26T00:01:13.698Z,1.30
2022-07-26T00:02:18.267Z,1.30
2022-07-26T00:03:13.974Z,1.70
2022-07-26T00:04:14.136Z,1.60
2022-07-26T00:05:14.296Z,1.70
2022-07-26T00:06:14.456Z,1.80
2022-07-26T00:07:14.616Z,1.30
2022-07-26T00:08:14.779Z,1.20
2022-07-26T00:09:14.938Z,1.50
2022-07-26T00:10:15.105Z,1.60
2022-07-26T00:11:15.257Z,1.00
2022-07-26T00:12:15.460Z,1.20
2022-07-26T00:13:15.636Z,1.50
2022-07-26T00:14:15.846Z,1.20
2022-07-26T00:15:15.997Z,1.50
2022-07-26T00:16:16.288Z,1.60
2022-07-26T00:17:16.367Z,1.30
2022-07-26T00:18:16.529Z,1.00
2022-07-26T00:19:16.696Z,1.60
2022-07-26T00:20:16.858Z,1.10
2022-07-26T00:21:17.020Z,1.80
2022-07-26T00:22:17.178Z,1.50
2022-07-26T00:23:17.327Z,1.30
2022-07-26T00:24:17.538Z,1.60
2022-07-26T00:25:17.696Z,1.20
2022-07-26T00:26:17.887Z,1.40
2022-07-26T00:27:18.047Z,1.20
2022-07-26T00:28:18.209Z,1.70
2022-07-26T00:29:18.386Z,1.10
2022-07-26T00:30:18.558Z,1.10
2022-07-26T00:31:18.830Z,1.10
2022-07-26T00:32:18.898Z,1.70
2022-07-26T00:33:19.061Z,1.10
2022-07-26T00:34:19.236Z,1.40
2022-07-26T00:35:19.390Z,1.50
2022-07-26T00:36:19.548Z,1.30
2022-07-26T00:37:20.473Z,1.40
2022-07-26T00:38:19.870Z,1.40
2022-07-26T00:39:20.040Z,1.10
2022-07-26T00:40:20.206Z,1.50
2022-07-26T00:41:20.359Z,1.50
2022-07-26T00:42:20.558Z,1.50
2022-07-26T00:43:20.709Z,1.50
2022-07-26T00:44:20.921Z,1.10
2022-07-26T00:45:21.079Z,1.40
2022-07-26T00:46:21.416Z,1.30
2022-07-26T00:47:21.413Z,1.50
2022-07-26T00:48:21.625Z,1.50
2022-07-26T00:49:21.879Z,1.50
2022-07-26T00:50:21.940Z,1.30
2022-07-26T00:51:22.100Z,1.60
2022-07-26T00:52:22.272Z,1.30
2022-07-26T00:53:22.431Z,1.20
2022-07-26T00:54:22.611Z,1.10
2022-07-26T00:55:22.770Z,1.00
2022-07-26T00:56:22.932Z,1.30
2022-07-26T00:57:23.091Z,1.20
2022-07-26T00:58:23.252Z,1.10
2022-07-26T00:59:23.422Z,1.40
2022-07-26T01:00:23.592Z,1.10
2022-07-26T01:01:23.828Z,1.50
2022-07-26T01:02:24.007Z,1.80
2022-07-26T01:03:24.084Z,1.50
2022-07-26T01:04:25.283Z,1.40
2022-07-26T01:05:24.434Z,1.90
2022-07-26T01:06:27.347Z,1.80
2022-07-26T01:07:24.763Z,1.40
2022-07-26T01:08:24.962Z,1.30
2022-07-26T01:09:25.140Z,1.70
2022-07-26T01:10:25.305Z,1.60
2022-07-26T01:11:25.453Z,1.40
2022-07-26T01:12:25.624Z,0.90
2022-07-26T01:13:25.773Z,1.70
2022-07-26T01:14:25.984Z,1.50
2022-07-26T01:15:26.142Z,1.30
2022-07-26T01:16:26.351Z,1.30
2022-07-26T01:17:26.494Z,1.40
2022-07-26T01:18:26.654Z,1.60
2022-07-26T01:19:26.824Z,1.00
2022-07-26T01:20:26.994Z,1.40
2022-07-26T01:21:27.155Z,1.40
2022-07-26T01:22:27.315Z,1.70
2022-07-26T01:23:27.474Z,1.30
2022-07-26T01:24:27.644Z,1.50
2022-07-26T01:25:27.804Z,1.20
2022-07-26T01:26:27.974Z,1.30
2022-07-26T01:27:33.552Z,1.60
2022-07-26T01:28:29.294Z,1.50
2022-07-26T01:29:36.128Z,1.40
2022-07-26T01:30:29.636Z,1.70
2022-07-26T01:31:28.863Z,1.00
2022-07-26T01:32:28.994Z,1.60
2022-07-26T01:33:29.145Z,1.00
2022-07-26T01:34:29.355Z,1.50
2022-07-26T01:35:29.513Z,1.50
2022-07-26T01:36:29.706Z,1.00
2022-07-26T01:37:29.865Z,1.60
2022-07-26T01:38:30.064Z,1.10
2022-07-26T01:39:30.229Z,1.10
2022-07-26T01:40:30.388Z,1.50
2022-07-26T01:41:38.169Z,1.30
2022-07-26T01:42:31.726Z,1.10
2022-07-26T01:43:30.907Z,1.70
2022-07-26T01:44:31.116Z,1.10
2022-07-26T01:45:31.319Z,1.60
2022-07-26T01:46:31.457Z,1.50
2022-07-26T01:47:31.617Z,1.20
2022-07-26T01:48:31.845Z,1.60
2022-07-26T01:49:31.946Z,1.20
2022-07-26T01:50:32.107Z,1.70
2022-07-26T01:51:32.267Z,1.20
2022-07-26T01:52:32.427Z,2.30
2022-07-26T01:53:32.586Z,1.30
2022-07-26T01:54:32.767Z,1.30
2022-07-26T01:55:32.921Z,1.40
2022-07-26T01:56:33.091Z,1.40
2022-07-26T01:57:33.257Z,1.50
2022-07-26T01:58:33.409Z,1.50
2022-07-26T01:59:33.577Z,1.20
2022-07-26T02:00:33.738Z,1.70
2022-07-26T02:01:38.353Z,1.50
2022-07-26T02:02:35.313Z,1.30
2022-07-26T02:03:34.256Z,1.30
2022-07-26T02:04:34.427Z,1.20
2022-07-26T02:05:34.591Z,2.00
2022-07-26T02:06:34.748Z,1.60
2022-07-26T02:07:34.909Z,1.30
2022-07-26T02:08:35.098Z,1.20
2022-07-26T02:09:39.541Z,1.10
2022-07-26T02:10:35.458Z,1.50
2022-07-26T02:11:35.619Z,1.00
2022-07-26T02:12:35.778Z,1.50
2022-07-26T02:13:35.939Z,1.30
2022-07-26T02:14:36.109Z,0.90
2022-07-26T02:15:36.290Z,1.40
2022-07-26T02:16:36.430Z,1.20
2022-07-26T02:17:36.589Z,1.10
2022-07-26T02:18:36.750Z,1.00
2022-07-26T02:19:36.931Z,1.60
2022-07-26T02:20:37.089Z,1.50
2022-07-26T02:21:37.250Z,1.30
2022-07-26T02:22:37.413Z,0.90
2022-07-26T02:23:41.281Z,1.30
2022-07-26T02:24:37.747Z,1.30
2022-07-26T02:25:37.902Z,0.90
2022-07-26T02:26:38.071Z,1.30
2022-07-26T02:27:38.222Z,1.40
2022-07-26T02:28:38.432Z,1.30
2022-07-26T02:29:38.606Z,1.10
2022-07-26T02:30:39.431Z,0.90
2022-07-26T02:31:38.954Z,0.90
2022-07-26T02:32:39.098Z,1.10
2022-07-26T02:33:39.251Z,1.30
2022-07-26T02:34:39.431Z,1.30
2022-07-26T02:35:39.592Z,1.20
2022-07-26T02:36:39.760Z,1.10
2022-07-26T02:37:43.534Z,0.90
2022-07-26T02:38:40.109Z,1.10
2022-07-26T02:39:40.284Z,1.20
2022-07-26T02:40:40.443Z,1.10
2022-07-26T02:41:40.602Z,1.40
2022-07-26T02:42:40.763Z,1.40
2022-07-26T02:43:40.925Z,1.10
2022-07-26T02:44:41.101Z,1.70
2022-07-26T02:45:41.252Z,1.40
2022-07-26T02:46:41.555Z,1.70
2022-07-26T02:47:41.632Z,1.30
2022-07-26T02:48:41.825Z,0.90
2022-07-26T02:49:41.973Z,1.70
2022-07-26T02:50:42.133Z,1.10
2022-07-26T02:51:42.284Z,1.40
2022-07-26T02:52:42.465Z,1.10
2022-07-26T02:53:42.624Z,1.50
2022-07-26T02:54:42.823Z,1.10
2022-07-26T02:55:42.964Z,1.20
2022-07-26T02:56:43.154Z,1.30
2022-07-26T02:57:46.099Z,1.40
2022-07-26T02:58:43.511Z,2.00
2022-07-26T02:59:43.694Z,1.50
2022-07-26T03:00:43.882Z,0.90
2022-07-26T03:01:44.111Z,1.30
2022-07-26T03:02:44.291Z,1.50
2022-07-26T03:03:50.127Z,1.20
2022-07-26T03:04:45.603Z,1.10
2022-07-26T03:05:44.757Z,1.10
2022-07-26T03:06:44.945Z,1.50
2022-07-26T03:07:45.125Z,1.20
2022-07-26T03:08:45.305Z,1.50
2022-07-26T03:09:45.474Z,1.10
2022-07-26T03:10:45.625Z,1.30
2022-07-26T03:11:45.805Z,1.50
2022-07-26T03:12:45.986Z,1.60
2022-07-26T03:13:46.169Z,2.00
2022-07-26T03:14:46.375Z,1.50
2022-07-26T03:15:46.553Z,1.50
2022-07-26T03:16:46.675Z,1.60
2022-07-26T03:17:46.825Z,1.80
2022-07-26T03:18:47.017Z,1.10
2022-07-26T03:19:47.226Z,1.90
2022-07-26T03:20:47.378Z,1.30
2022-07-26T03:21:47.566Z,1.00
2022-07-26T03:22:47.716Z,1.20
2022-07-26T03:23:47.908Z,1.70
2022-07-26T03:24:48.087Z,1.30
2022-07-26T03:25:48.237Z,1.50
2022-07-26T03:26:48.388Z,1.50
2022-07-26T03:27:48.587Z,2.00
2022-07-26T03:28:48.765Z,1.50
2022-07-26T03:29:48.956Z,1.50
2022-07-26T03:30:49.134Z,1.20
2022-07-26T03:31:49.265Z,1.00
2022-07-26T03:32:49.456Z,1.40
2022-07-26T03:33:49.651Z,1.40
2022-07-26T03:34:49.820Z,1.30
2022-07-26T03:35:49.967Z,1.20
2022-07-26T03:36:50.165Z,1.10
2022-07-26T03:37:50.307Z,1.20
2022-07-26T03:38:50.467Z,1.20
2022-07-26T03:39:50.667Z,1.70
2022-07-26T03:40:50.807Z,0.90
2022-07-26T03:41:50.998Z,1.10
2022-07-26T03:42:51.188Z,1.00
2022-07-26T03:43:51.377Z,1.10
2022-07-26T03:44:51.548Z,1.60
2022-07-26T03:45:54.478Z,1.40
2022-07-26T03:46:51.869Z,1.20
2022-07-26T03:47:52.059Z,1.70
2022-07-26T03:48:52.271Z,1.10
2022-07-26T03:49:52.418Z,1.30
2022-07-26T03:50:52.569Z,1.10
2022-07-26T03:51:52.728Z,0.90
2022-07-26T03:52:52.887Z,1.20
2022-07-26T03:53:53.057Z,1.20
2022-07-26T03:54:53.233Z,1.40
2022-07-26T03:55:53.392Z,1.10
2022-07-26T03:56:53.555Z,1.20
2022-07-26T03:57:53.723Z,1.20
2022-07-26T03:58:53.871Z,0.90
2022-07-26T03:59:54.074Z,1.70
2022-07-26T04:00:54.219Z,1.70
2022-07-26T04:01:54.466Z,1.10
2022-07-26T04:02:54.675Z,1.00
2022-07-26T04:03:54.768Z,1.10
2022-07-26T04:04:54.958Z,0.90
2022-07-26T04:05:55.111Z,0.80
2022-07-26T04:06:55.289Z,1.00
2022-07-26T04:07:55.833Z,0.90
2022-07-26T04:08:55.629Z,1.10
2022-07-26T04:09:55.829Z,1.10
2022-07-26T04:10:55.975Z,0.80
2022-07-26T04:11:56.159Z,1.20
2022-07-26T04:12:56.310Z,1.00
2022-07-26T04:13:56.498Z,0.80
2022-07-26T04:14:56.690Z,0.70
2022-07-26T04:15:56.840Z,0.80
2022-07-26T04:16:57.057Z,1.00
2022-07-26T04:17:57.219Z,1.80
2022-07-26T04:18:57.391Z,0.80
2022-07-26T04:19:57.590Z,1.30
2022-07-26T04:20:57.731Z,1.00
2022-07-26T04:21:57.911Z,1.50
2022-07-26T04:22:58.091Z,1.00
2022-07-26T04:23:58.283Z,0.80
2022-07-26T04:24:58.481Z,1.20
2022-07-26T04:25:58.655Z,2.00
2022-07-26T04:26:58.830Z,0.90
2022-07-26T04:27:59.013Z,1.20
2022-07-26T04:28:59.193Z,1.10
2022-07-26T04:29:59.571Z,1.40
2022-07-26T04:30:59.576Z,1.00
2022-07-26T04:31:59.732Z,1.10
2022-07-26T04:32:59.924Z,0.90
2022-07-26T04:34:00.101Z,1.20
2022-07-26T04:35:00.315Z,1.00
2022-07-26T04:36:00.456Z,1.10
2022-07-26T04:37:00.701Z,1.10
2022-07-26T04:38:00.828Z,0.90
2022-07-26T04:39:01.003Z,1.50
2022-07-26T04:40:01.193Z,0.90
2022-07-26T04:41:01.342Z,1.30
2022-07-26T04:42:01.529Z,1.40
2022-07-26T04:43:01.705Z,1.00
2022-07-26T04:44:01.897Z,1.10
2022-07-26T04:45:07.471Z,1.20
2022-07-26T04:46:03.321Z,1.10
2022-07-26T04:47:02.415Z,1.00
2022-07-26T04:48:02.614Z,1.10
2022-07-26T04:49:02.848Z,1.20
2022-07-26T04:50:02.976Z,1.40
2022-07-26T04:51:03.112Z,0.90
2022-07-26T04:52:03.294Z,0.60
2022-07-26T04:53:03.474Z,0.90
2022-07-26T04:54:03.661Z,0.50
2022-07-26T04:55:03.866Z,1.10
2022-07-26T04:56:04.004Z,1.00
2022-07-26T04:57:04.192Z,0.60
2022-07-26T04:58:04.372Z,0.70
2022-07-26T04:59:04.544Z,0.80
2022-07-26T05:00:20.874Z,0.70
2022-07-26T05:01:10.460Z,0.90
2022-07-26T05:02:06.187Z,0.70
2022-07-26T05:03:05.364Z,0.90
2022-07-26T05:04:05.509Z,0.80
2022-07-26T05:05:05.614Z,0.80
2022-07-26T05:06:05.795Z,0.50
2022-07-26T05:07:05.976Z,0.80
2022-07-26T05:08:06.163Z,0.60
2022-07-26T05:09:06.336Z,0.60
2022-07-26T05:10:06.525Z,0.60
2022-07-26T05:11:06.720Z,0.60
2022-07-26T05:12:06.865Z,0.70
2022-07-26T05:13:07.044Z,0.90
2022-07-26T05:14:07.500Z,0.70
2022-07-26T05:15:09.417Z,0.80
2022-07-26T05:16:12.001Z,0.30
2022-07-26T05:17:08.682Z,0.50
2022-07-26T05:18:08.215Z,0.50
2022-07-26T05:19:08.116Z,0.80
2022-07-26T05:20:08.326Z,0.30
2022-07-26T05:21:08.469Z,0.60
2022-07-26T05:22:08.647Z,1.30
2022-07-26T05:23:08.827Z,0.40
2022-07-26T05:24:09.488Z,0.40
2022-07-26T05:25:09.201Z,0.50
2022-07-26T05:26:09.347Z,0.40
2022-07-26T05:27:09.526Z,0.30
2022-07-26T05:28:09.708Z,0.40
2022-07-26T05:29:09.889Z,0.50
2022-07-26T05:30:10.088Z,0.40
2022-07-26T05:31:10.347Z,0.70
2022-07-26T05:32:10.410Z,0.30
2022-07-26T05:33:10.579Z,0.70
2022-07-26T05:34:11.992Z,0.40
2022-07-26T05:35:10.948Z,0.60
2022-07-26T05:36:11.118Z,0.50
2022-07-26T05:37:11.306Z,0.70
2022-07-26T05:38:11.479Z,0.70
2022-07-26T05:39:15.746Z,0.30
2022-07-26T05:40:11.839Z,0.50
2022-07-26T05:41:11.979Z,0.30
2022-07-26T05:42:12.165Z,0.70
2022-07-26T05:43:12.330Z,0.50
2022-07-26T05:44:12.503Z,0.50
2022-07-26T05:45:12.700Z,0.30
2022-07-26T05:46:12.957Z,0.30
2022-07-26T05:47:13.041Z,0.40
2022-07-26T05:48:13.231Z,0.40
2022-07-26T05:49:13.468Z,0.40
2022-07-26T05:50:13.600Z,0.20
2022-07-26T05:51:13.779Z,0.40
2022-07-26T05:52:13.941Z,0.30
2022-07-26T05:53:14.121Z,0.20
2022-07-26T05:54:14.307Z,0.80
2022-07-26T05:55:14.494Z,0.20
2022-07-26T05:56:14.670Z,0.40
2022-07-26T05:57:14.842Z,0.30
2022-07-26T05:58:15.032Z,0.40
2022-07-26T05:59:15.203Z,0.20
2022-07-26T06:00:15.413Z,0.60
2022-07-26T06:01:15.554Z,0.40
2022-07-26T06:02:15.823Z,0.20
2022-07-26T06:03:15.884Z,0.30
2022-07-26T06:04:16.104Z,0.30
2022-07-26T06:05:16.276Z,0.30
2022-07-26T06:06:16.427Z,0.40
2022-07-26T06:07:16.596Z,0.40
2022-07-26T06:08:16.784Z,0.20
2022-07-26T06:09:16.963Z,0.40
2022-07-26T06:10:17.168Z,0.20
2022-07-26T06:11:17.305Z,0.30
2022-07-26T06:12:17.495Z,0.20
2022-07-26T06:13:17.687Z,0.30
2022-07-26T06:14:17.855Z,0.10
2022-07-26T06:15:18.045Z,0.30
2022-07-26T06:16:18.204Z,0.50
2022-07-26T06:17:18.451Z,0.20
2022-07-26T06:18:18.546Z,0.20
2022-07-26T06:19:18.707Z,0.20
2022-07-26T06:20:18.896Z,0.10
2022-07-26T06:21:19.057Z,0.20
2022-07-26T06:22:19.218Z,0.20
2022-07-26T06:23:33.769Z,0.10
2022-07-26T06:24:20.570Z,0.30
2022-07-26T06:25:19.744Z,0.70
2022-07-26T06:26:19.902Z,0.50
2022-07-26T06:27:20.070Z,0.50
2022-07-26T06:28:20.249Z,0.50
2022-07-26T06:29:20.419Z,0.30
2022-07-26T06:30:20.590Z,0.30
2022-07-26T06:31:20.807Z,0.30
2022-07-26T06:32:20.951Z,0.30
2022-07-26T06:33:21.107Z,0.10
2022-07-26T06:34:21.290Z,0.10
2022-07-26T06:35:21.479Z,0.20
2022-07-26T06:36:21.633Z,0.20
2022-07-26T06:37:21.800Z,0.20
2022-07-26T06:38:21.980Z,0.50
2022-07-26T06:39:22.160Z,0.10
2022-07-26T06:40:22.371Z,0.30
2022-07-26T06:41:22.513Z,0.30
2022-07-26T06:42:22.700Z,0.80
2022-07-26T06:43:22.873Z,0.50
2022-07-26T06:44:23.103Z,0.10
2022-07-26T06:45:23.233Z,0.20
2022-07-26T06:46:23.480Z,0.40
2022-07-26T06:47:23.595Z,0.30
2022-07-26T06:48:23.792Z,0.20
2022-07-26T06:49:24.002Z,0.20
2022-07-26T06:50:25.783Z,0.30
2022-07-26T06:51:24.304Z,0.50
2022-07-26T06:52:24.493Z,0.30
2022-07-26T06:53:24.665Z,0.30
2022-07-26T06:54:24.879Z,0.30
2022-07-26T06:55:25.051Z,0.50
2022-07-26T06:56:25.229Z,0.20
2022-07-26T06:57:25.436Z,1.20
2022-07-26T06:58:25.576Z,0.50
2022-07-26T06:59:25.746Z,0.30
2022-07-26T07:00:25.947Z,0.40
2022-07-26T07:01:58.721Z,0.30
2022-07-26T07:02:27.278Z,0.40
2022-07-26T07:03:26.466Z,0.50
2022-07-26T07:04:26.750Z,0.20
2022-07-26T07:05:26.827Z,0.30
2022-07-26T07:06:27.007Z,0.20
2022-07-26T07:07:27.188Z,0.20
2022-07-26T07:08:27.360Z,0.20
2022-07-26T07:09:27.538Z,0.30
2022-07-26T07:10:27.727Z,0.30
2022-07-26T07:11:27.896Z,0.60
2022-07-26T07:12:28.048Z,0.30
2022-07-26T07:13:28.219Z,0.30
2022-07-26T07:14:28.418Z,0.10
2022-07-26T07:15:28.601Z,0.90
2022-07-26T07:16:28.884Z,0.10
2022-07-26T07:17:28.951Z,0.60
2022-07-26T07:18:29.139Z,0.30
2022-07-26T07:19:29.309Z,0.20
2022-07-26T07:20:29.520Z,0.50
2022-07-26T07:21:29.661Z,0.40
2022-07-26T07:22:29.850Z,1.00
2022-07-26T07:23:30.020Z,0.20
2022-07-26T07:24:30.201Z,0.20
2022-07-26T07:25:31.197Z,0.30
2022-07-26T07:26:30.530Z,0.40
2022-07-26T07:27:30.721Z,0.20
2022-07-26T07:28:30.891Z,0.20
2022-07-26T07:29:31.061Z,0.30
2022-07-26T07:30:31.262Z,0.20
2022-07-26T07:31:48.016Z,0.50
2022-07-26T07:32:32.659Z,0.20
2022-07-26T07:33:32.237Z,0.40
2022-07-26T07:34:32.963Z,0.20
2022-07-26T07:35:32.908Z,0.60
2022-07-26T07:36:32.336Z,0.70
2022-07-26T07:37:53.030Z,0.30
2022-07-26T07:38:33.685Z,0.30
2022-07-26T07:39:34.845Z,0.40
2022-07-26T07:40:34.064Z,0.40
2022-07-26T07:41:33.225Z,0.20
2022-07-26T07:42:33.406Z,0.50
2022-07-26T07:43:33.581Z,0.20
2022-07-26T07:44:33.754Z,0.80
2022-07-26T07:45:33.969Z,0.30
2022-07-26T07:46:34.138Z,0.30
2022-07-26T07:47:34.306Z,0.30
2022-07-26T07:48:34.541Z,0.30
2022-07-26T07:49:34.718Z,0.30
2022-07-26T07:50:34.861Z,0.10
2022-07-26T07:51:36.204Z,0.30
2022-07-26T07:52:35.187Z,0.20
2022-07-26T07:53:35.392Z,0.30
2022-07-26T07:54:35.567Z,0.20
2022-07-26T07:55:40.927Z,0.40
2022-07-26T07:56:36.888Z,0.10
2022-07-26T07:57:36.079Z,0.10
2022-07-26T07:58:36.268Z,0.20
2022-07-26T07:59:39.039Z,0.60
2022-07-26T08:00:36.595Z,0.60
2022-07-26T08:01:40.237Z,0.30
2022-07-26T08:02:36.920Z,0.10
2022-07-26T08:03:38.990Z,0.20
2022-07-26T08:04:37.365Z,0.20
2022-07-26T08:05:40.575Z,0.30
2022-07-26T08:06:37.627Z,0.30
2022-07-26T08:07:37.812Z,0.20
2022-07-26T08:08:38.002Z,0.20
2022-07-26T08:09:38.170Z,0.30
2022-07-26T08:10:43.607Z,0.20
2022-07-26T08:11:39.534Z,0.20
2022-07-26T08:12:38.715Z,0.30
2022-07-26T08:13:38.893Z,0.40
2022-07-26T08:14:39.053Z,0.30
2022-07-26T08:15:39.327Z,0.30
2022-07-26T08:16:39.498Z,0.60
2022-07-26T08:17:41.883Z,0.30
2022-07-26T08:18:55.662Z,0.30
2022-07-26T08:19:41.779Z,0.40
2022-07-26T08:20:40.116Z,0.30
2022-07-26T08:21:40.295Z,0.40
2022-07-26T08:22:40.434Z,0.30
2022-07-26T08:23:40.626Z,0.20
2022-07-26T08:24:40.799Z,0.10
2022-07-26T08:25:55.074Z,0.20
2022-07-26T08:26:42.177Z,0.50
2022-07-26T08:27:41.403Z,0.50
2022-07-26T08:28:58.416Z,0.10
2022-07-26T08:29:42.688Z,0.30
2022-07-26T08:30:41.838Z,0.00
2022-07-26T08:31:42.079Z,0.10
2022-07-26T08:32:42.188Z,0.00
2022-07-26T08:33:46.518Z,0.20
2022-07-26T08:34:42.535Z,0.10
2022-07-26T08:35:42.719Z,0.10
2022-07-26T08:37:06.991Z,0.10
2022-07-26T08:37:44.079Z,0.10
2022-07-26T08:38:43.237Z,0.10
2022-07-26T08:39:43.409Z,0.10
2022-07-26T08:40:43.581Z,0.00
2022-07-26T08:41:43.779Z,0.10
2022-07-26T08:42:43.919Z,0.00
2022-07-26T08:43:51.558Z,0.10
2022-07-26T08:44:45.279Z,0.00
2022-07-26T08:45:44.451Z,0.00
2022-07-26T08:46:44.654Z,0.30
2022-07-26T08:48:07.309Z,0.00
2022-07-26T08:48:46.037Z,0.10
2022-07-26T08:49:45.183Z,0.00
2022-07-26T08:50:45.348Z,0.00
2022-07-26T08:51:45.533Z,0.10
2022-07-26T08:52:45.683Z,0.00
2022-07-26T08:53:45.855Z,1.00
2022-07-26T08:54:46.028Z,0.10
2022-07-26T08:56:05.939Z,0.10
2022-07-26T08:56:47.392Z,0.00
2022-07-26T08:57:46.545Z,0.10
2022-07-26T08:58:46.715Z,0.20
2022-07-26T08:59:46.905Z,0.10
2022-07-26T09:00:47.140Z,0.00
2022-07-26T09:01:47.272Z,0.10
2022-07-26T09:02:47.446Z,0.10
2022-07-26T09:03:47.700Z,0.20
2022-07-26T09:04:47.849Z,0.10
2022-07-26T09:05:47.969Z,0.00
2022-07-26T09:06:48.125Z,0.10
2022-07-26T09:07:48.296Z,0.00
2022-07-26T09:08:48.511Z,0.00
2022-07-26T09:09:48.678Z,0.10
2022-07-26T09:10:48.847Z,0.30
2022-07-26T09:11:49.057Z,0.00
2022-07-26T09:12:49.207Z,0.10
2022-07-26T09:13:49.377Z,0.00
2022-07-26T09:14:49.547Z,0.00
2022-07-26T09:15:49.773Z,0.10
2022-07-26T09:16:49.994Z,0.10
2022-07-26T09:17:50.099Z,0.10
2022-07-26T09:18:50.271Z,0.40
2022-07-26T09:19:50.450Z,0.00
2022-07-26T09:20:50.620Z,0.20
2022-07-26T09:21:50.810Z,0.10
2022-07-26T09:22:50.950Z,0.00
2022-07-26T09:23:51.149Z,0.40
2022-07-26T09:24:51.322Z,0.40
2022-07-26T09:25:51.501Z,0.00
2022-07-26T09:26:51.701Z,0.10
2022-07-26T09:27:51.838Z,0.10
2022-07-26T09:28:52.011Z,0.00
2022-07-26T09:29:52.191Z,0.00
2022-07-26T09:30:52.410Z,0.20
2022-07-26T09:31:52.626Z,0.00
2022-07-26T09:32:57.013Z,0.10
2022-07-26T09:33:54.052Z,0.00
2022-07-26T09:34:55.697Z,0.00
2022-07-26T09:35:54.254Z,0.00
2022-07-26T09:36:53.427Z,0.30
2022-07-26T09:37:53.607Z,0.00
2022-07-26T09:38:53.775Z,0.10
2022-07-26T09:39:53.956Z,0.10
2022-07-26T09:40:54.134Z,0.20
2022-07-26T09:42:17.456Z,0.10
2022-07-26T09:42:55.484Z,0.00
2022-07-26T09:43:54.650Z,0.00
2022-07-26T09:44:54.796Z,0.00
2022-07-26T09:45:54.966Z,0.30
2022-07-26T09:46:55.218Z,0.10
2022-07-26T09:47:55.306Z,0.00
2022-07-26T09:49:11.805Z,0.10
2022-07-26T09:49:56.675Z,0.10
2022-07-26T09:50:55.818Z,0.30
2022-07-26T09:51:56.039Z,0.30
2022-07-26T09:52:56.168Z,0.00
2022-07-26T09:53:56.366Z,0.20
2022-07-26T09:54:56.527Z,0.10
2022-07-26T09:55:56.714Z,0.20
2022-07-26T09:56:56.877Z,0.00
2022-07-26T09:57:57.026Z,0.10
2022-07-26T09:58:57.199Z,0.20
2022-07-26T09:59:57.389Z,0.40
2022-07-26T10:01:02.096Z,0.00
2022-07-26T10:01:58.815Z,0.00
2022-07-26T10:02:57.959Z,0.00
2022-07-26T10:03:58.097Z,0.00
2022-07-26T10:04:58.281Z,0.10
2022-07-26T10:05:58.460Z,0.10
2022-07-26T10:06:58.629Z,0.20
2022-07-26T10:07:58.801Z,0.30
2022-07-26T10:08:58.971Z,0.10
2022-07-26T10:09:59.161Z,0.20
2022-07-26T10:10:59.342Z,0.10
2022-07-26T10:11:59.539Z,0.20
2022-07-26T10:12:59.692Z,0.60
2022-07-26T10:13:59.880Z,0.10
2022-07-26T10:15:00.044Z,0.20
2022-07-26T10:16:00.261Z,0.10
2022-07-26T10:17:00.424Z,0.20
2022-07-26T10:18:00.564Z,0.60
2022-07-26T10:19:00.873Z,0.20
2022-07-26T10:20:00.903Z,0.20
2022-07-26T10:21:01.072Z,0.10
2022-07-26T10:22:01.272Z,0.10
2022-07-26T10:23:01.423Z,0.20
2022-07-26T10:24:01.602Z,0.70
2022-07-26T10:25:01.790Z,0.20
2022-07-26T10:26:01.966Z,0.20
2022-07-26T10:27:02.153Z,0.20
2022-07-26T10:28:02.325Z,0.20
2022-07-26T10:29:03.504Z,0.30
2022-07-26T10:30:02.677Z,0.00
2022-07-26T10:31:02.875Z,0.00
2022-07-26T10:32:03.053Z,0.20
2022-07-26T10:33:03.189Z,0.40
2022-07-26T10:34:06.779Z,0.40
2022-07-26T10:35:03.526Z,0.10
2022-07-26T10:36:03.723Z,0.10
2022-07-26T10:37:03.896Z,0.00
2022-07-26T10:38:04.091Z,0.20
2022-07-26T10:39:04.254Z,0.50
2022-07-26T10:40:04.435Z,0.50
2022-07-26T10:41:04.607Z,0.40
2022-07-26T10:42:04.797Z,0.10
2022-07-26T10:43:30.146Z,0.10
2022-07-26T10:44:06.157Z,0.10
2022-07-26T10:45:05.296Z,0.10
2022-07-26T10:46:05.531Z,0.30
2022-07-26T10:47:05.646Z,0.20
2022-07-26T10:48:05.819Z,0.10
2022-07-26T10:49:06.021Z,0.20
2022-07-26T10:50:06.159Z,0.40
2022-07-26T10:51:06.641Z,0.00
2022-07-26T10:52:06.499Z,0.20
2022-07-26T10:53:06.636Z,0.00
2022-07-26T10:54:06.922Z,0.10
2022-07-26T10:55:06.981Z,0.00
2022-07-26T10:56:07.160Z,0.20
2022-07-26T10:57:07.341Z,0.30
2022-07-26T10:58:07.501Z,0.10
2022-07-26T10:59:07.671Z,0.10
2022-07-26T11:00:07.842Z,0.10
2022-07-26T11:01:08.108Z,0.00
2022-07-26T11:02:08.284Z,0.20
2022-07-26T11:03:08.408Z,0.10
2022-07-26T11:04:08.964Z,0.10
2022-07-26T11:05:08.732Z,0.20
2022-07-26T11:06:08.900Z,0.20
2022-07-26T11:07:09.073Z,0.10
2022-07-26T11:08:09.244Z,0.20
2022-07-26T11:09:09.416Z,0.10
2022-07-26T11:10:09.620Z,0.20
2022-07-26T11:11:09.751Z,0.10
2022-07-26T11:12:09.934Z,0.00
2022-07-26T11:13:10.113Z,0.40
2022-07-26T11:14:10.670Z,0.20
2022-07-26T11:15:10.463Z,0.10
2022-07-26T11:16:10.684Z,0.20
2022-07-26T11:17:10.836Z,0.10
2022-07-26T11:18:10.985Z,0.20
2022-07-26T11:19:11.156Z,0.30
2022-07-26T11:20:11.346Z,0.10
2022-07-26T11:21:11.515Z,0.20
2022-07-26T11:22:11.726Z,0.30
2022-07-26T11:23:11.876Z,0.50
2022-07-26T11:24:12.397Z,0.10
2022-07-26T11:25:12.226Z,0.50
2022-07-26T11:26:12.416Z,0.10
2022-07-26T11:27:12.596Z,0.10
2022-07-26T11:28:12.776Z,0.10
2022-07-26T11:29:17.573Z,0.10
2022-07-26T11:30:14.138Z,0.00
2022-07-26T11:31:13.298Z,0.00
2022-07-26T11:32:18.172Z,0.20
2022-07-26T11:33:14.680Z,0.10
2022-07-26T11:34:14.263Z,0.10
2022-07-26T11:35:13.981Z,0.00
2022-07-26T11:36:14.158Z,0.00
2022-07-26T11:37:14.370Z,0.00
2022-07-26T11:38:14.508Z,0.20
2022-07-26T11:39:14.689Z,0.00
2022-07-26T11:40:14.865Z,0.10
2022-07-26T11:41:15.032Z,0.00
2022-07-26T11:42:15.237Z,0.20
2022-07-26T11:43:15.405Z,0.10
2022-07-26T11:44:16.106Z,0.10
2022-07-26T11:45:15.731Z,0.10
2022-07-26T11:46:15.961Z,0.10
2022-07-26T11:47:16.102Z,0.20
2022-07-26T11:48:16.261Z,0.20
2022-07-26T11:49:16.504Z,0.30
2022-07-26T11:50:22.761Z,0.10
2022-07-26T11:51:17.770Z,0.10
2022-07-26T11:52:24.937Z,0.20
2022-07-26T11:53:18.124Z,0.10
2022-07-26T11:54:17.297Z,0.10
2022-07-26T11:55:17.472Z,0.10
2022-07-26T11:56:17.658Z,0.10
2022-07-26T11:57:17.855Z,0.50
2022-07-26T11:58:18.033Z,0.10
2022-07-26T11:59:18.214Z,0.00
2022-07-26T12:00:18.394Z,0.10
2022-07-26T12:01:18.596Z,0.30
2022-07-26T12:02:18.794Z,0.00
2022-07-26T12:03:18.965Z,0.30
2022-07-26T12:04:19.249Z,0.20
2022-07-26T12:05:19.852Z,0.20
2022-07-26T12:06:19.504Z,0.00
2022-07-26T12:07:20.128Z,0.10
2022-07-26T12:08:19.856Z,0.10
2022-07-26T12:09:20.032Z,0.00
2022-07-26T12:10:20.196Z,0.10
2022-07-26T12:11:20.366Z,0.10
2022-07-26T12:12:20.553Z,0.10
2022-07-26T12:13:20.703Z,0.10
2022-07-26T12:14:21.168Z,0.40
2022-07-26T12:15:21.056Z,0.40
2022-07-26T12:16:21.355Z,0.10
2022-07-26T12:17:21.427Z,0.00
2022-07-26T12:18:21.576Z,0.00
2022-07-26T12:19:21.737Z,0.20
2022-07-26T12:20:21.897Z,0.00
2022-07-26T12:21:22.078Z,0.10
2022-07-26T12:22:22.267Z,0.00
2022-07-26T12:23:22.462Z,0.00
2022-07-26T12:24:22.598Z,0.20
2022-07-26T12:25:22.788Z,0.10
2022-07-26T12:26:22.977Z,0.00
2022-07-26T12:27:23.185Z,0.20
2022-07-26T12:28:23.316Z,0.20
2022-07-26T12:29:23.496Z,0.10
2022-07-26T12:30:23.697Z,0.00
2022-07-26T12:31:23.949Z,0.10
2022-07-26T12:32:24.051Z,0.00
2022-07-26T12:33:24.221Z,0.00
2022-07-26T12:34:24.389Z,0.00
2022-07-26T12:35:24.571Z,0.00
2022-07-26T12:36:28.114Z,0.00
2022-07-26T12:37:33.720Z,0.00
2022-07-26T12:38:26.072Z,0.00
2022-07-26T12:39:25.258Z,0.00
2022-07-26T12:40:25.432Z,0.00
2022-07-26T12:41:25.621Z,0.00
2022-07-26T12:42:33.614Z,0.00
2022-07-26T12:43:26.973Z,0.10
2022-07-26T12:44:26.121Z,0.00
2022-07-26T12:45:26.301Z,0.00
2022-07-26T12:46:26.597Z,0.00
2022-07-26T12:47:26.680Z,0.00
2022-07-26T12:48:26.850Z,0.10
2022-07-26T12:49:27.061Z,0.20
2022-07-26T12:50:27.182Z,0.00
2022-07-26T12:51:27.362Z,0.00
2022-07-26T12:52:27.556Z,0.00
2022-07-26T12:53:27.742Z,0.00
2022-07-26T12:54:29.658Z,0.00
2022-07-26T12:55:28.110Z,0.00
2022-07-26T12:56:28.283Z,0.00
2022-07-26T12:57:28.482Z,0.00
2022-07-26T12:58:28.623Z,0.00
2022-07-26T12:59:28.792Z,0.00
2022-07-26T13:00:30.028Z,0.00
2022-07-26T13:01:29.226Z,0.00
2022-07-26T13:02:29.318Z,0.00
2022-07-26T13:03:29.483Z,0.00
2022-07-26T13:04:29.741Z,0.00
2022-07-26T13:05:29.798Z,0.00
2022-07-26T13:06:29.958Z,0.00
2022-07-26T13:07:30.134Z,0.00
2022-07-26T13:08:30.285Z,0.00
2022-07-26T13:09:30.455Z,0.10
2022-07-26T13:10:33.717Z,0.10
2022-07-26T13:11:30.786Z,0.00
2022-07-26T13:12:30.969Z,0.00
2022-07-26T13:13:31.115Z,0.00
2022-07-26T13:14:31.277Z,0.00
2022-07-26T13:15:37.362Z,0.00
2022-07-26T13:16:32.664Z,0.00
2022-07-26T13:17:31.805Z,0.00
2022-07-26T13:18:31.956Z,0.00
2022-07-26T13:19:32.137Z,0.10
2022-07-26T13:20:32.306Z,0.00